sensor_id;sensor_type;location;lat;lon;timestamp;P1;durP1;ratioP1;P2;durP2;ratioP2
11283;SDS011;5698;47.332;11.180;2023-05-27T00:00:43;8.43;;;7.47;;
11283;SDS011;5698;47.332;11.180;2023-05-27T00:03:10;8.03;;;7.20;;
11283;SDS011;5698;47.332;11.180;2023-05-27T00:05:38;8.80;;;7.20;;
11283;SDS011;5698;47.332;11.180;2023-05-27T00:08:05;8.60;;;7.63;;
11283;SDS011;5698;47.332;11.180;2023-05-27T00:10:32;11.23;;;7.43;;
11283;SDS011;5698;47.332;11.180;2023-05-27T00:12:59;8.40;;;7.60;;
11283;SDS011;5698;47.332;11.180;2023-05-27T00:15:26;10.50;;;7.43;;
11283;SDS011;5698;47.332;11.180;2023-05-27T00:17:53;9.47;;;8.10;;
11283;SDS011;5698;47.332;11.180;2023-05-27T00:20:21;12.27;;;9.07;;
11283;SDS011;5698;47.332;11.180;2023-05-27T00:22:50;8.60;;;7.37;;
11283;SDS011;5698;47.332;11.180;2023-05-27T00:25:17;9.47;;;7.03;;
11283;SDS011;5698;47.332;11.180;2023-05-27T00:27:46;8.63;;;7.57;;
11283;SDS011;5698;47.332;11.180;2023-05-27T00:30:13;7.90;;;7.10;;
11283;SDS011;5698;47.332;11.180;2023-05-27T00:32:41;9.27;;;7.67;;
11283;SDS011;5698;47.332;11.180;2023-05-27T00:35:08;8.70;;;7.80;;
11283;SDS011;5698;47.332;11.180;2023-05-27T00:37:37;8.03;;;7.20;;
11283;SDS011;5698;47.332;11.180;2023-05-27T00:40:06;9.77;;;7.57;;
11283;SDS011;5698;47.332;11.180;2023-05-27T00:42:36;9.03;;;7.90;;
11283;SDS011;5698;47.332;11.180;2023-05-27T00:45:03;7.87;;;7.10;;
11283;SDS011;5698;47.332;11.180;2023-05-27T00:47:31;8.33;;;7.53;;
11283;SDS011;5698;47.332;11.180;2023-05-27T00:49:59;8.77;;;6.90;;
11283;SDS011;5698;47.332;11.180;2023-05-27T00:52:28;8.47;;;7.53;;
11283;SDS011;5698;47.332;11.180;2023-05-27T00:54:55;10.27;;;8.73;;
11283;SDS011;5698;47.332;11.180;2023-05-27T00:57:25;10.83;;;8.63;;
11283;SDS011;5698;47.332;11.180;2023-05-27T00:59:52;10.30;;;8.30;;
11283;SDS011;5698;47.332;11.180;2023-05-27T01:02:19;8.60;;;7.77;;
11283;SDS011;5698;47.332;11.180;2023-05-27T01:04:47;12.87;;;9.73;;
11283;SDS011;5698;47.332;11.180;2023-05-27T01:07:15;11.40;;;9.37;;
11283;SDS011;5698;47.332;11.180;2023-05-27T01:09:47;12.83;;;9.07;;
11283;SDS011;5698;47.332;11.180;2023-05-27T01:12:18;11.20;;;9.80;;
11283;SDS011;5698;47.332;11.180;2023-05-27T01:14:55;11.43;;;8.90;;
11283;SDS011;5698;47.332;11.180;2023-05-27T01:17:24;10.43;;;8.90;;
11283;SDS011;5698;47.332;11.180;2023-05-27T01:19:53;10.90;;;9.83;;
11283;SDS011;5698;47.332;11.180;2023-05-27T01:22:26;12.30;;;8.60;;
11283;SDS011;5698;47.332;11.180;2023-05-27T01:24:54;11.13;;;8.80;;
11283;SDS011;5698;47.332;11.180;2023-05-27T01:27:22;10.70;;;9.00;;
11283;SDS011;5698;47.332;11.180;2023-05-27T01:29:50;11.07;;;8.63;;
11283;SDS011;5698;47.332;11.180;2023-05-27T01:32:18;12.17;;;8.33;;
11283;SDS011;5698;47.332;11.180;2023-05-27T01:34:51;10.80;;;8.63;;
11283;SDS011;5698;47.332;11.180;2023-05-27T01:37:23;10.77;;;8.90;;
11283;SDS011;5698;47.332;11.180;2023-05-27T01:39:54;10.47;;;8.93;;
11283;SDS011;5698;47.332;11.180;2023-05-27T01:42:21;14.27;;;8.87;;
11283;SDS011;5698;47.332;11.180;2023-05-27T01:44:49;11.87;;;9.43;;
11283;SDS011;5698;47.332;11.180;2023-05-27T01:47:17;14.20;;;9.70;;
11283;SDS011;5698;47.332;11.180;2023-05-27T01:49:44;10.37;;;8.90;;
11283;SDS011;5698;47.332;11.180;2023-05-27T01:52:11;14.40;;;9.20;;
11283;SDS011;5698;47.332;11.180;2023-05-27T01:54:40;9.50;;;8.60;;
11283;SDS011;5698;47.332;11.180;2023-05-27T01:57:07;11.93;;;9.20;;
11283;SDS011;5698;47.332;11.180;2023-05-27T01:59:34;9.50;;;8.50;;
11283;SDS011;5698;47.332;11.180;2023-05-27T02:02:01;13.93;;;9.40;;
11283;SDS011;5698;47.332;11.180;2023-05-27T02:04:28;9.73;;;8.77;;
11283;SDS011;5698;47.332;11.180;2023-05-27T02:06:55;12.37;;;9.83;;
11283;SDS011;5698;47.332;11.180;2023-05-27T02:09:22;10.63;;;9.03;;
11283;SDS011;5698;47.332;11.180;2023-05-27T02:11:50;10.23;;;8.47;;
11283;SDS011;5698;47.332;11.180;2023-05-27T02:14:17;10.57;;;8.77;;
11283;SDS011;5698;47.332;11.180;2023-05-27T02:16:44;10.20;;;9.00;;
11283;SDS011;5698;47.332;11.180;2023-05-27T02:19:12;10.33;;;9.13;;
11283;SDS011;5698;47.332;11.180;2023-05-27T02:21:39;10.73;;;8.63;;
11283;SDS011;5698;47.332;11.180;2023-05-27T02:24:07;11.57;;;8.63;;
11283;SDS011;5698;47.332;11.180;2023-05-27T02:26:34;10.10;;;8.17;;
11283;SDS011;5698;47.332;11.180;2023-05-27T02:29:02;10.37;;;8.30;;
11283;SDS011;5698;47.332;11.180;2023-05-27T02:31:29;8.87;;;8.00;;
11283;SDS011;5698;47.332;11.180;2023-05-27T02:33:56;8.70;;;7.90;;
11283;SDS011;5698;47.332;11.180;2023-05-27T02:36:23;9.67;;;7.90;;
11283;SDS011;5698;47.332;11.180;2023-05-27T02:38:51;10.17;;;8.33;;
11283;SDS011;5698;47.332;11.180;2023-05-27T02:41:18;9.73;;;8.57;;
11283;SDS011;5698;47.332;11.180;2023-05-27T02:43:45;11.03;;;8.50;;
11283;SDS011;5698;47.332;11.180;2023-05-27T02:46:14;10.43;;;8.50;;
11283;SDS011;5698;47.332;11.180;2023-05-27T02:48:42;10.20;;;9.00;;
11283;SDS011;5698;47.332;11.180;2023-05-27T02:51:09;9.00;;;8.10;;
11283;SDS011;5698;47.332;11.180;2023-05-27T02:53:36;8.63;;;7.80;;
11283;SDS011;5698;47.332;11.180;2023-05-27T02:56:03;10.23;;;9.13;;
11283;SDS011;5698;47.332;11.180;2023-05-27T02:58:31;8.90;;;7.90;;
11283;SDS011;5698;47.332;11.180;2023-05-27T03:00:58;9.20;;;8.40;;
11283;SDS011;5698;47.332;11.180;2023-05-27T03:03:26;8.97;;;8.07;;
11283;SDS011;5698;47.332;11.180;2023-05-27T03:05:54;9.70;;;8.50;;
11283;SDS011;5698;47.332;11.180;2023-05-27T03:08:21;9.60;;;7.03;;
11283;SDS011;5698;47.332;11.180;2023-05-27T03:10:48;8.03;;;6.80;;
11283;SDS011;5698;47.332;11.180;2023-05-27T03:13:15;9.23;;;7.80;;
11283;SDS011;5698;47.332;11.180;2023-05-27T03:15:42;7.67;;;6.87;;
11283;SDS011;5698;47.332;11.180;2023-05-27T03:18:09;8.23;;;7.40;;
11283;SDS011;5698;47.332;11.180;2023-05-27T03:20:37;8.17;;;7.20;;
11283;SDS011;5698;47.332;11.180;2023-05-27T03:23:04;7.67;;;6.73;;
11283;SDS011;5698;47.332;11.180;2023-05-27T03:25:31;9.43;;;7.83;;
11283;SDS011;5698;47.332;11.180;2023-05-27T03:27:59;9.13;;;7.80;;
11283;SDS011;5698;47.332;11.180;2023-05-27T03:30:26;7.87;;;7.07;;
11283;SDS011;5698;47.332;11.180;2023-05-27T03:32:53;9.53;;;6.83;;
11283;SDS011;5698;47.332;11.180;2023-05-27T03:35:20;8.27;;;6.57;;
11283;SDS011;5698;47.332;11.180;2023-05-27T03:37:48;9.17;;;7.47;;
11283;SDS011;5698;47.332;11.180;2023-05-27T03:40:15;7.50;;;6.50;;
11283;SDS011;5698;47.332;11.180;2023-05-27T03:42:43;8.53;;;6.83;;
11283;SDS011;5698;47.332;11.180;2023-05-27T03:45:10;9.07;;;6.50;;
11283;SDS011;5698;47.332;11.180;2023-05-27T03:47:37;7.77;;;6.97;;
11283;SDS011;5698;47.332;11.180;2023-05-27T03:50:04;7.77;;;6.97;;
11283;SDS011;5698;47.332;11.180;2023-05-27T03:52:32;8.17;;;6.93;;
11283;SDS011;5698;47.332;11.180;2023-05-27T03:55:00;7.47;;;6.77;;
11283;SDS011;5698;47.332;11.180;2023-05-27T03:57:27;7.00;;;6.37;;
11283;SDS011;5698;47.332;11.180;2023-05-27T03:59:54;7.20;;;6.50;;
11283;SDS011;5698;47.332;11.180;2023-05-27T04:02:21;7.50;;;6.57;;
11283;SDS011;5698;47.332;11.180;2023-05-27T04:04:48;7.13;;;6.43;;
11283;SDS011;5698;47.332;11.180;2023-05-27T04:07:16;7.67;;;6.70;;
11283;SDS011;5698;47.332;11.180;2023-05-27T04:09:44;6.63;;;5.97;;
11283;SDS011;5698;47.332;11.180;2023-05-27T04:12:12;7.70;;;7.00;;
11283;SDS011;5698;47.332;11.180;2023-05-27T04:14:39;7.13;;;6.37;;
11283;SDS011;5698;47.332;11.180;2023-05-27T04:17:06;7.73;;;6.93;;
11283;SDS011;5698;47.332;11.180;2023-05-27T04:19:33;7.43;;;6.50;;
11283;SDS011;5698;47.332;11.180;2023-05-27T04:22:00;8.17;;;6.77;;
11283;SDS011;5698;47.332;11.180;2023-05-27T04:24:27;7.80;;;7.10;;
11283;SDS011;5698;47.332;11.180;2023-05-27T04:26:54;8.17;;;6.40;;
11283;SDS011;5698;47.332;11.180;2023-05-27T04:29:22;9.43;;;6.60;;
11283;SDS011;5698;47.332;11.180;2023-05-27T04:31:49;7.33;;;6.63;;
11283;SDS011;5698;47.332;11.180;2023-05-27T04:34:16;9.90;;;7.77;;
11283;SDS011;5698;47.332;11.180;2023-05-27T04:36:44;10.33;;;8.20;;
11283;SDS011;5698;47.332;11.180;2023-05-27T04:39:14;8.10;;;7.30;;
11283;SDS011;5698;47.332;11.180;2023-05-27T04:41:41;8.23;;;6.93;;
11283;SDS011;5698;47.332;11.180;2023-05-27T04:44:10;7.13;;;6.30;;
11283;SDS011;5698;47.332;11.180;2023-05-27T04:46:39;7.80;;;6.87;;
11283;SDS011;5698;47.332;11.180;2023-05-27T04:49:08;7.13;;;6.53;;
11283;SDS011;5698;47.332;11.180;2023-05-27T04:51:35;7.50;;;6.80;;
11283;SDS011;5698;47.332;11.180;2023-05-27T04:54:02;7.13;;;6.50;;
11283;SDS011;5698;47.332;11.180;2023-05-27T04:56:30;8.43;;;7.13;;
11283;SDS011;5698;47.332;11.180;2023-05-27T04:58:57;7.40;;;6.70;;
11283;SDS011;5698;47.332;11.180;2023-05-27T05:01:24;9.00;;;7.17;;
11283;SDS011;5698;47.332;11.180;2023-05-27T05:03:53;6.93;;;6.23;;
11283;SDS011;5698;47.332;11.180;2023-05-27T05:06:37;7.07;;;6.47;;
11283;SDS011;5698;47.332;11.180;2023-05-27T05:09:05;9.40;;;8.40;;
11283;SDS011;5698;47.332;11.180;2023-05-27T05:11:32;8.73;;;7.60;;
11283;SDS011;5698;47.332;11.180;2023-05-27T05:13:59;9.20;;;7.40;;
11283;SDS011;5698;47.332;11.180;2023-05-27T05:16:26;8.37;;;7.40;;
11283;SDS011;5698;47.332;11.180;2023-05-27T05:18:55;7.60;;;6.90;;
11283;SDS011;5698;47.332;11.180;2023-05-27T05:21:22;7.90;;;7.10;;
11283;SDS011;5698;47.332;11.180;2023-05-27T05:23:49;8.87;;;7.30;;
11283;SDS011;5698;47.332;11.180;2023-05-27T05:26:16;8.97;;;8.07;;
11283;SDS011;5698;47.332;11.180;2023-05-27T05:28:43;8.87;;;7.33;;
11283;SDS011;5698;47.332;11.180;2023-05-27T05:31:10;9.60;;;7.87;;
11283;SDS011;5698;47.332;11.180;2023-05-27T05:33:37;8.67;;;7.77;;
11283;SDS011;5698;47.332;11.180;2023-05-27T05:36:06;9.00;;;7.30;;
11283;SDS011;5698;47.332;11.180;2023-05-27T05:38:33;9.07;;;8.17;;
11283;SDS011;5698;47.332;11.180;2023-05-27T05:41:00;8.07;;;7.27;;
11283;SDS011;5698;47.332;11.180;2023-05-27T05:43:27;10.30;;;7.50;;
11283;SDS011;5698;47.332;11.180;2023-05-27T05:45:54;10.97;;;7.73;;
11283;SDS011;5698;47.332;11.180;2023-05-27T05:48:21;10.30;;;8.23;;
11283;SDS011;5698;47.332;11.180;2023-05-27T05:50:48;10.43;;;7.50;;
11283;SDS011;5698;47.332;11.180;2023-05-27T05:53:17;10.50;;;9.40;;
11283;SDS011;5698;47.332;11.180;2023-05-27T05:55:44;8.80;;;7.90;;
11283;SDS011;5698;47.332;11.180;2023-05-27T05:58:11;10.00;;;8.47;;
11283;SDS011;5698;47.332;11.180;2023-05-27T06:00:37;9.33;;;7.93;;
11283;SDS011;5698;47.332;11.180;2023-05-27T06:03:04;10.30;;;8.43;;
11283;SDS011;5698;47.332;11.180;2023-05-27T06:05:31;10.53;;;8.30;;
11283;SDS011;5698;47.332;11.180;2023-05-27T06:07:58;9.17;;;8.23;;
11283;SDS011;5698;47.332;11.180;2023-05-27T06:10:27;13.63;;;8.60;;
11283;SDS011;5698;47.332;11.180;2023-05-27T06:12:54;10.37;;;8.73;;
11283;SDS011;5698;47.332;11.180;2023-05-27T06:15:21;10.10;;;8.27;;
11283;SDS011;5698;47.332;11.180;2023-05-27T06:17:48;9.27;;;8.10;;
11283;SDS011;5698;47.332;11.180;2023-05-27T06:20:15;8.77;;;7.37;;
11283;SDS011;5698;47.332;11.180;2023-05-27T06:22:42;8.57;;;7.63;;
11283;SDS011;5698;47.332;11.180;2023-05-27T06:25:11;8.50;;;7.60;;
11283;SDS011;5698;47.332;11.180;2023-05-27T06:27:40;11.13;;;8.93;;
11283;SDS011;5698;47.332;11.180;2023-05-27T06:30:08;8.77;;;7.93;;
11283;SDS011;5698;47.332;11.180;2023-05-27T06:32:35;11.53;;;8.77;;
11283;SDS011;5698;47.332;11.180;2023-05-27T06:35:02;11.20;;;9.00;;
11283;SDS011;5698;47.332;11.180;2023-05-27T06:37:30;11.20;;;8.17;;
11283;SDS011;5698;47.332;11.180;2023-05-27T06:39:57;9.80;;;8.50;;
11283;SDS011;5698;47.332;11.180;2023-05-27T06:42:24;10.43;;;7.47;;
11283;SDS011;5698;47.332;11.180;2023-05-27T06:44:52;10.70;;;8.47;;
11283;SDS011;5698;47.332;11.180;2023-05-27T06:47:19;9.10;;;8.07;;
11283;SDS011;5698;47.332;11.180;2023-05-27T06:49:46;8.50;;;7.60;;
11283;SDS011;5698;47.332;11.180;2023-05-27T06:52:13;8.67;;;7.43;;
11283;SDS011;5698;47.332;11.180;2023-05-27T06:54:41;8.73;;;7.80;;
11283;SDS011;5698;47.332;11.180;2023-05-27T06:57:08;10.87;;;8.43;;
11283;SDS011;5698;47.332;11.180;2023-05-27T06:59:35;10.70;;;8.67;;
11283;SDS011;5698;47.332;11.180;2023-05-27T07:02:03;10.10;;;7.73;;
11283;SDS011;5698;47.332;11.180;2023-05-27T07:04:30;13.00;;;8.80;;
11283;SDS011;5698;47.332;11.180;2023-05-27T07:06:57;9.70;;;8.37;;
11283;SDS011;5698;47.332;11.180;2023-05-27T07:09:24;10.07;;;8.00;;
11283;SDS011;5698;47.332;11.180;2023-05-27T07:11:51;11.90;;;7.33;;
11283;SDS011;5698;47.332;11.180;2023-05-27T07:14:18;9.40;;;7.70;;
11283;SDS011;5698;47.332;11.180;2023-05-27T07:16:45;8.87;;;7.97;;
11283;SDS011;5698;47.332;11.180;2023-05-27T07:19:13;9.43;;;8.00;;
11283;SDS011;5698;47.332;11.180;2023-05-27T07:21:41;11.97;;;8.33;;
11283;SDS011;5698;47.332;11.180;2023-05-27T07:24:08;8.87;;;7.97;;
11283;SDS011;5698;47.332;11.180;2023-05-27T07:26:35;9.40;;;8.20;;
11283;SDS011;5698;47.332;11.180;2023-05-27T07:29:03;8.83;;;7.93;;
11283;SDS011;5698;47.332;11.180;2023-05-27T07:31:31;11.73;;;8.17;;
11283;SDS011;5698;47.332;11.180;2023-05-27T07:33:58;8.80;;;7.90;;
11283;SDS011;5698;47.332;11.180;2023-05-27T07:36:26;9.90;;;7.80;;
11283;SDS011;5698;47.332;11.180;2023-05-27T07:38:53;10.00;;;7.70;;
11283;SDS011;5698;47.332;11.180;2023-05-27T07:41:21;8.87;;;7.43;;
11283;SDS011;5698;47.332;11.180;2023-05-27T07:43:48;9.53;;;7.37;;
11283;SDS011;5698;47.332;11.180;2023-05-27T07:46:15;9.40;;;7.30;;
11283;SDS011;5698;47.332;11.180;2023-05-27T07:48:42;9.90;;;7.57;;
11283;SDS011;5698;47.332;11.180;2023-05-27T07:51:09;9.43;;;7.33;;
11283;SDS011;5698;47.332;11.180;2023-05-27T07:53:38;8.97;;;7.30;;
11283;SDS011;5698;47.332;11.180;2023-05-27T07:56:05;10.17;;;7.67;;
11283;SDS011;5698;47.332;11.180;2023-05-27T07:58:32;8.77;;;7.77;;
11283;SDS011;5698;47.332;11.180;2023-05-27T08:00:59;10.10;;;7.67;;
11283;SDS011;5698;47.332;11.180;2023-05-27T08:03:26;10.30;;;7.50;;
11283;SDS011;5698;47.332;11.180;2023-05-27T08:05:53;10.00;;;7.70;;
11283;SDS011;5698;47.332;11.180;2023-05-27T08:08:20;9.33;;;7.30;;
11283;SDS011;5698;47.332;11.180;2023-05-27T08:10:48;10.87;;;7.90;;
11283;SDS011;5698;47.332;11.180;2023-05-27T08:13:16;7.70;;;7.00;;
11283;SDS011;5698;47.332;11.180;2023-05-27T08:15:43;8.27;;;6.53;;
11283;SDS011;5698;47.332;11.180;2023-05-27T08:18:12;10.73;;;7.60;;
11283;SDS011;5698;47.332;11.180;2023-05-27T08:20:39;10.10;;;7.40;;
11283;SDS011;5698;47.332;11.180;2023-05-27T08:23:06;7.80;;;7.00;;
11283;SDS011;5698;47.332;11.180;2023-05-27T08:25:33;9.20;;;7.33;;
11283;SDS011;5698;47.332;11.180;2023-05-27T08:28:01;9.70;;;7.30;;
11283;SDS011;5698;47.332;11.180;2023-05-27T08:30:28;11.40;;;7.20;;
11283;SDS011;5698;47.332;11.180;2023-05-27T08:32:55;9.90;;;7.43;;
11283;SDS011;5698;47.332;11.180;2023-05-27T08:35:22;8.77;;;7.43;;
11283;SDS011;5698;47.332;11.180;2023-05-27T08:37:49;8.83;;;7.93;;
11283;SDS011;5698;47.332;11.180;2023-05-27T08:40:17;8.87;;;7.43;;
11283;SDS011;5698;47.332;11.180;2023-05-27T08:42:45;8.47;;;7.57;;
11283;SDS011;5698;47.332;11.180;2023-05-27T08:45:14;10.67;;;7.07;;
11283;SDS011;5698;47.332;11.180;2023-05-27T08:47:41;7.70;;;6.80;;
11283;SDS011;5698;47.332;11.180;2023-05-27T08:50:08;8.03;;;6.33;;
11283;SDS011;5698;47.332;11.180;2023-05-27T08:52:38;10.07;;;6.27;;
11283;SDS011;5698;47.332;11.180;2023-05-27T08:55:09;8.90;;;5.50;;
11283;SDS011;5698;47.332;11.180;2023-05-27T08:57:37;6.70;;;5.67;;
11283;SDS011;5698;47.332;11.180;2023-05-27T09:00:09;7.17;;;6.33;;
11283;SDS011;5698;47.332;11.180;2023-05-27T09:02:41;10.73;;;6.23;;
11283;SDS011;5698;47.332;11.180;2023-05-27T09:05:11;7.10;;;5.87;;
11283;SDS011;5698;47.332;11.180;2023-05-27T09:07:41;8.03;;;5.60;;
11283;SDS011;5698;47.332;11.180;2023-05-27T09:10:09;5.80;;;5.10;;
11283;SDS011;5698;47.332;11.180;2023-05-27T09:12:36;5.00;;;3.97;;
11283;SDS011;5698;47.332;11.180;2023-05-27T09:15:03;4.73;;;4.20;;
11283;SDS011;5698;47.332;11.180;2023-05-27T09:17:31;5.03;;;3.93;;
11283;SDS011;5698;47.332;11.180;2023-05-27T09:19:59;3.60;;;3.30;;
11283;SDS011;5698;47.332;11.180;2023-05-27T09:22:28;4.63;;;3.50;;
11283;SDS011;5698;47.332;11.180;2023-05-27T09:24:56;6.10;;;4.10;;
11283;SDS011;5698;47.332;11.180;2023-05-27T09:27:24;5.60;;;3.80;;
11283;SDS011;5698;47.332;11.180;2023-05-27T09:29:51;4.13;;;3.37;;
11283;SDS011;5698;47.332;11.180;2023-05-27T09:32:25;6.70;;;4.43;;
11283;SDS011;5698;47.332;11.180;2023-05-27T09:34:53;6.50;;;4.30;;
11283;SDS011;5698;47.332;11.180;2023-05-27T09:37:25;4.77;;;3.63;;
11283;SDS011;5698;47.332;11.180;2023-05-27T09:39:57;4.20;;;3.80;;
11283;SDS011;5698;47.332;11.180;2023-05-27T09:42:24;5.80;;;3.60;;
11283;SDS011;5698;47.332;11.180;2023-05-27T09:44:53;4.60;;;3.87;;
11283;SDS011;5698;47.332;11.180;2023-05-27T09:47:20;4.33;;;3.93;;
11283;SDS011;5698;47.332;11.180;2023-05-27T09:49:49;5.27;;;3.80;;
11283;SDS011;5698;47.332;11.180;2023-05-27T09:52:19;3.77;;;3.40;;
11283;SDS011;5698;47.332;11.180;2023-05-27T09:54:49;4.20;;;3.80;;
11283;SDS011;5698;47.332;11.180;2023-05-27T09:57:17;4.80;;;3.40;;
11283;SDS011;5698;47.332;11.180;2023-05-27T09:59:45;4.47;;;3.30;;
11283;SDS011;5698;47.332;11.180;2023-05-27T10:02:14;4.03;;;3.53;;
11283;SDS011;5698;47.332;11.180;2023-05-27T10:04:44;4.17;;;3.47;;
11283;SDS011;5698;47.332;11.180;2023-05-27T10:07:14;6.80;;;3.63;;
11283;SDS011;5698;47.332;11.180;2023-05-27T10:09:44;4.03;;;3.60;;
11283;SDS011;5698;47.332;11.180;2023-05-27T10:12:13;4.80;;;3.43;;
11283;SDS011;5698;47.332;11.180;2023-05-27T10:14:41;5.57;;;3.70;;
11283;SDS011;5698;47.332;11.180;2023-05-27T10:17:09;4.47;;;3.87;;
11283;SDS011;5698;47.332;11.180;2023-05-27T10:19:36;5.70;;;3.60;;
11283;SDS011;5698;47.332;11.180;2023-05-27T10:22:07;6.43;;;3.63;;
11283;SDS011;5698;47.332;11.180;2023-05-27T10:24:35;3.97;;;3.50;;
11283;SDS011;5698;47.332;11.180;2023-05-27T10:27:02;5.37;;;3.80;;
11283;SDS011;5698;47.332;11.180;2023-05-27T10:29:38;3.77;;;3.33;;
11283;SDS011;5698;47.332;11.180;2023-05-27T10:32:05;3.77;;;3.30;;
11283;SDS011;5698;47.332;11.180;2023-05-27T10:34:35;3.80;;;3.20;;
11283;SDS011;5698;47.332;11.180;2023-05-27T10:37:03;3.73;;;3.30;;
11283;SDS011;5698;47.332;11.180;2023-05-27T10:39:30;3.57;;;3.27;;
11283;SDS011;5698;47.332;11.180;2023-05-27T10:41:57;3.23;;;2.93;;
11283;SDS011;5698;47.332;11.180;2023-05-27T10:44:28;3.87;;;3.10;;
11283;SDS011;5698;47.332;11.180;2023-05-27T10:47:00;3.47;;;3.13;;
11283;SDS011;5698;47.332;11.180;2023-05-27T10:49:28;4.60;;;3.27;;
11283;SDS011;5698;47.332;11.180;2023-05-27T10:52:04;4.00;;;3.60;;
11283;SDS011;5698;47.332;11.180;2023-05-27T10:54:36;6.30;;;3.20;;
11283;SDS011;5698;47.332;11.180;2023-05-27T10:57:03;3.57;;;3.17;;
11283;SDS011;5698;47.332;11.180;2023-05-27T10:59:35;5.63;;;3.53;;
11283;SDS011;5698;47.332;11.180;2023-05-27T11:02:08;4.37;;;3.50;;
11283;SDS011;5698;47.332;11.180;2023-05-27T11:04:35;3.50;;;3.17;;
11283;SDS011;5698;47.332;11.180;2023-05-27T11:07:03;3.57;;;3.23;;
11283;SDS011;5698;47.332;11.180;2023-05-27T11:09:30;4.17;;;3.60;;
11283;SDS011;5698;47.332;11.180;2023-05-27T11:12:00;4.93;;;3.63;;
11283;SDS011;5698;47.332;11.180;2023-05-27T11:14:28;5.67;;;3.50;;
11283;SDS011;5698;47.332;11.180;2023-05-27T11:16:56;5.50;;;3.57;;
11283;SDS011;5698;47.332;11.180;2023-05-27T11:19:24;5.47;;;3.57;;
11283;SDS011;5698;47.332;11.180;2023-05-27T11:21:51;3.60;;;3.30;;
11283;SDS011;5698;47.332;11.180;2023-05-27T11:24:19;3.53;;;3.23;;
11283;SDS011;5698;47.332;11.180;2023-05-27T11:26:47;3.80;;;3.50;;
11283;SDS011;5698;47.332;11.180;2023-05-27T11:29:16;4.57;;;3.10;;
11283;SDS011;5698;47.332;11.180;2023-05-27T11:31:45;4.17;;;3.60;;
11283;SDS011;5698;47.332;11.180;2023-05-27T11:34:14;4.70;;;3.57;;
11283;SDS011;5698;47.332;11.180;2023-05-27T11:36:43;4.60;;;3.77;;
11283;SDS011;5698;47.332;11.180;2023-05-27T11:39:11;4.60;;;4.00;;
11283;SDS011;5698;47.332;11.180;2023-05-27T11:41:51;4.40;;;3.90;;
11283;SDS011;5698;47.332;11.180;2023-05-27T11:44:20;4.73;;;3.80;;
11283;SDS011;5698;47.332;11.180;2023-05-27T11:46:49;4.30;;;3.87;;
11283;SDS011;5698;47.332;11.180;2023-05-27T11:49:17;6.17;;;4.03;;
11283;SDS011;5698;47.332;11.180;2023-05-27T11:51:46;3.53;;;3.23;;
11283;SDS011;5698;47.332;11.180;2023-05-27T11:54:17;6.93;;;3.50;;
11283;SDS011;5698;47.332;11.180;2023-05-27T11:56:45;4.13;;;3.60;;
11283;SDS011;5698;47.332;11.180;2023-05-27T11:59:13;4.43;;;3.60;;
11283;SDS011;5698;47.332;11.180;2023-05-27T12:01:40;4.27;;;3.63;;
11283;SDS011;5698;47.332;11.180;2023-05-27T12:04:08;4.07;;;3.67;;
11283;SDS011;5698;47.332;11.180;2023-05-27T12:06:35;7.40;;;4.80;;
11283;SDS011;5698;47.332;11.180;2023-05-27T12:09:05;8.63;;;5.27;;
11283;SDS011;5698;47.332;11.180;2023-05-27T12:11:32;6.17;;;3.97;;
11283;SDS011;5698;47.332;11.180;2023-05-27T12:14:00;5.43;;;4.10;;
11283;SDS011;5698;47.332;11.180;2023-05-27T12:16:27;5.10;;;4.00;;
11283;SDS011;5698;47.332;11.180;2023-05-27T12:18:54;6.00;;;4.37;;
11283;SDS011;5698;47.332;11.180;2023-05-27T12:21:21;6.47;;;3.63;;
11283;SDS011;5698;47.332;11.180;2023-05-27T12:23:48;5.83;;;3.73;;
11283;SDS011;5698;47.332;11.180;2023-05-27T12:26:17;6.00;;;3.80;;
11283;SDS011;5698;47.332;11.180;2023-05-27T12:28:45;3.50;;;3.20;;
11283;SDS011;5698;47.332;11.180;2023-05-27T12:31:12;5.80;;;3.50;;
11283;SDS011;5698;47.332;11.180;2023-05-27T12:33:39;5.63;;;3.70;;
11283;SDS011;5698;47.332;11.180;2023-05-27T12:36:06;4.13;;;3.73;;
11283;SDS011;5698;47.332;11.180;2023-05-27T12:38:33;4.03;;;3.50;;
11283;SDS011;5698;47.332;11.180;2023-05-27T12:41:00;3.93;;;3.57;;
11283;SDS011;5698;47.332;11.180;2023-05-27T12:43:29;3.87;;;3.50;;
11283;SDS011;5698;47.332;11.180;2023-05-27T12:45:56;4.30;;;3.40;;
11283;SDS011;5698;47.332;11.180;2023-05-27T12:48:24;4.20;;;3.53;;
11283;SDS011;5698;47.332;11.180;2023-05-27T12:50:51;4.17;;;3.40;;
11283;SDS011;5698;47.332;11.180;2023-05-27T12:53:18;4.87;;;4.00;;
11283;SDS011;5698;47.332;11.180;2023-05-27T12:55:45;6.40;;;3.87;;
11283;SDS011;5698;47.332;11.180;2023-05-27T12:58:12;5.13;;;4.10;;
11283;SDS011;5698;47.332;11.180;2023-05-27T13:00:41;4.47;;;3.50;;
11283;SDS011;5698;47.332;11.180;2023-05-27T13:03:09;5.17;;;4.23;;
11283;SDS011;5698;47.332;11.180;2023-05-27T13:05:36;5.27;;;4.30;;
11283;SDS011;5698;47.332;11.180;2023-05-27T13:08:04;5.20;;;4.20;;
11283;SDS011;5698;47.332;11.180;2023-05-27T13:10:31;4.70;;;3.87;;
11283;SDS011;5698;47.332;11.180;2023-05-27T13:12:59;4.73;;;3.80;;
11283;SDS011;5698;47.332;11.180;2023-05-27T13:15:27;4.63;;;3.70;;
11283;SDS011;5698;47.332;11.180;2023-05-27T13:17:56;4.30;;;3.70;;
11283;SDS011;5698;47.332;11.180;2023-05-27T13:20:24;4.23;;;3.63;;
11283;SDS011;5698;47.332;11.180;2023-05-27T13:22:53;4.90;;;4.40;;
11283;SDS011;5698;47.332;11.180;2023-05-27T13:25:24;4.40;;;3.90;;
11283;SDS011;5698;47.332;11.180;2023-05-27T13:27:53;6.47;;;3.93;;
11283;SDS011;5698;47.332;11.180;2023-05-27T13:30:21;4.47;;;3.87;;
11283;SDS011;5698;47.332;11.180;2023-05-27T13:32:49;4.60;;;4.20;;
11283;SDS011;5698;47.332;11.180;2023-05-27T13:35:17;5.10;;;4.30;;
11283;SDS011;5698;47.332;11.180;2023-05-27T13:37:46;6.50;;;4.30;;
11283;SDS011;5698;47.332;11.180;2023-05-27T13:40:13;4.53;;;3.77;;
11283;SDS011;5698;47.332;11.180;2023-05-27T13:42:40;5.63;;;4.10;;
11283;SDS011;5698;47.332;11.180;2023-05-27T13:45:07;5.97;;;3.80;;
11283;SDS011;5698;47.332;11.180;2023-05-27T13:47:35;5.87;;;4.00;;
11283;SDS011;5698;47.332;11.180;2023-05-27T13:50:04;4.27;;;3.90;;
11283;SDS011;5698;47.332;11.180;2023-05-27T13:52:33;4.40;;;4.00;;
11283;SDS011;5698;47.332;11.180;2023-05-27T13:55:01;4.83;;;4.03;;
11283;SDS011;5698;47.332;11.180;2023-05-27T13:57:28;4.93;;;3.80;;
11283;SDS011;5698;47.332;11.180;2023-05-27T13:59:55;4.30;;;3.90;;
11283;SDS011;5698;47.332;11.180;2023-05-27T14:02:23;5.93;;;4.13;;
11283;SDS011;5698;47.332;11.180;2023-05-27T14:04:50;6.43;;;4.13;;
11283;SDS011;5698;47.332;11.180;2023-05-27T14:07:17;7.03;;;4.47;;
11283;SDS011;5698;47.332;11.180;2023-05-27T14:09:45;4.93;;;3.70;;
11283;SDS011;5698;47.332;11.180;2023-05-27T14:12:12;6.37;;;4.43;;
11283;SDS011;5698;47.332;11.180;2023-05-27T14:14:39;4.87;;;4.10;;
11283;SDS011;5698;47.332;11.180;2023-05-27T14:17:06;4.23;;;3.83;;
11283;SDS011;5698;47.332;11.180;2023-05-27T14:19:33;4.87;;;4.20;;
11283;SDS011;5698;47.332;11.180;2023-05-27T14:22:01;6.00;;;4.60;;
11283;SDS011;5698;47.332;11.180;2023-05-27T14:24:28;6.83;;;4.23;;
11283;SDS011;5698;47.332;11.180;2023-05-27T14:26:57;6.10;;;4.60;;
11283;SDS011;5698;47.332;11.180;2023-05-27T14:29:24;5.27;;;4.50;;
11283;SDS011;5698;47.332;11.180;2023-05-27T14:31:51;5.23;;;4.33;;
11283;SDS011;5698;47.332;11.180;2023-05-27T14:34:18;5.47;;;4.50;;
11283;SDS011;5698;47.332;11.180;2023-05-27T14:36:45;6.77;;;4.40;;
11283;SDS011;5698;47.332;11.180;2023-05-27T14:39:12;8.37;;;4.30;;
11283;SDS011;5698;47.332;11.180;2023-05-27T14:41:40;6.57;;;4.43;;
11283;SDS011;5698;47.332;11.180;2023-05-27T14:44:08;6.33;;;4.13;;
11283;SDS011;5698;47.332;11.180;2023-05-27T14:46:35;4.77;;;4.33;;
11283;SDS011;5698;47.332;11.180;2023-05-27T14:49:02;6.87;;;4.47;;